createdAt,value
2019-04-07T00:01:11.546Z,72.02
2019-04-07T00:03:41.206Z,72.17
2019-04-07T00:06:11.145Z,72.19
2019-04-07T00:08:40.868Z,72.23
2019-04-07T00:11:10.759Z,72.21
2019-04-07T00:13:40.505Z,72.29
2019-04-07T00:16:10.311Z,72.50
2019-04-07T00:18:40.072Z,72.87
2019-04-07T00:21:10.054Z,72.73
2019-04-07T00:23:39.771Z,73.04
2019-04-07T00:26:09.879Z,72.74
2019-04-07T00:28:39.632Z,72.69
2019-04-07T00:31:09.550Z,72.73
2019-04-07T00:33:39.406Z,72.93
2019-04-07T00:36:09.561Z,72.78
2019-04-07T00:38:39.441Z,72.67
2019-04-07T00:41:09.505Z,72.58
2019-04-07T00:43:39.570Z,72.50
2019-04-07T00:46:09.534Z,72.78
2019-04-07T00:48:39.566Z,72.98
2019-04-07T00:51:09.370Z,72.89
2019-04-07T00:53:39.399Z,72.51
2019-04-07T00:56:09.384Z,72.86
2019-04-07T00:58:39.142Z,72.55
2019-04-07T01:01:10.646Z,72.61
2019-04-07T01:03:40.506Z,72.44
2019-04-07T01:06:10.746Z,72.75
2019-04-07T01:08:41.624Z,72.78
2019-04-07T01:11:11.441Z,72.53
2019-04-07T01:13:41.636Z,72.68
2019-04-07T01:16:11.945Z,73.06
2019-04-07T01:18:42.537Z,72.92
2019-04-07T01:21:12.812Z,73.37
2019-04-07T01:23:42.730Z,73.03
2019-04-07T01:26:12.814Z,73.12
2019-04-07T01:28:42.945Z,73.02
2019-04-07T01:31:13.351Z,73.01
2019-04-07T01:33:43.203Z,73.04
2019-04-07T01:36:13.594Z,72.86
2019-04-07T01:38:43.372Z,73.05
2019-04-07T01:41:26.684Z,73.06
2019-04-07T01:43:58.093Z,73.41
2019-04-07T01:46:35.437Z,73.64
2019-04-07T01:49:10.878Z,73.76
2019-04-07T01:51:45.519Z,73.60
2019-04-07T01:54:28.559Z,73.68
2019-04-07T01:57:00.231Z,73.75
2019-04-07T01:59:47.644Z,73.87
2019-04-07T02:02:35.572Z,74.11
2019-04-07T02:05:10.899Z,74.15
2019-04-07T02:07:51.314Z,74.37
2019-04-07T02:10:29.062Z,74.29
2019-04-07T02:13:03.229Z,74.25
2019-04-07T02:15:50.970Z,74.32
2019-04-07T02:18:38.845Z,74.35
2019-04-07T02:21:10.412Z,74.94
2019-04-07T02:23:54.805Z,74.64
2019-04-07T02:26:29.114Z,74.71
2019-04-07T02:29:15.638Z,74.76
2019-04-07T02:31:47.202Z,74.90
2019-04-07T02:34:18.558Z,74.88
2019-04-07T02:37:00.319Z,75.06
2019-04-07T02:39:48.664Z,75.08
2019-04-07T02:42:28.747Z,75.39
2019-04-07T02:45:01.309Z,75.49
2019-04-07T02:47:39.378Z,75.49
2019-04-07T02:50:26.289Z,75.96
2019-04-07T02:53:03.893Z,75.49
2019-04-07T02:55:42.027Z,75.81
2019-04-07T02:58:13.816Z,75.84
2019-04-07T03:00:45.255Z,75.77
2019-04-07T03:03:34.986Z,76.03
2019-04-07T03:06:07.013Z,76.19
2019-04-07T03:08:39.730Z,76.57
2019-04-07T03:11:11.234Z,76.66
2019-04-07T03:13:58.654Z,76.72
2019-04-07T03:16:47.425Z,76.56
2019-04-07T03:19:19.381Z,76.42
2019-04-07T03:21:58.348Z,76.62
2019-04-07T03:24:46.045Z,76.46
2019-04-07T03:27:19.986Z,76.82
2019-04-07T03:29:51.462Z,76.82
2019-04-07T03:32:42.853Z,77.10
2019-04-07T03:35:17.788Z,77.46
2019-04-07T03:37:54.753Z,77.08
2019-04-07T03:40:28.982Z,77.68
2019-04-07T03:43:07.183Z,78.04
2019-04-07T03:45:38.541Z,78.00
2019-04-07T03:48:19.131Z,78.58
2019-04-07T03:50:56.917Z,78.72
2019-04-07T03:53:39.331Z,78.17
2019-04-07T03:56:18.128Z,78.08
2019-04-07T03:58:55.795Z,78.77
2019-04-07T04:01:25.809Z,78.76
2019-04-07T04:03:56.594Z,79.39
2019-04-07T04:06:28.912Z,79.52
2019-04-07T04:08:58.728Z,79.41
2019-04-07T04:11:32.603Z,79.47
2019-04-07T04:14:09.734Z,79.91
2019-04-07T04:16:41.035Z,79.90
2019-04-07T04:19:11.085Z,80.07
2019-04-07T04:21:40.855Z,79.49
2019-04-07T04:24:10.542Z,79.67
2019-04-07T04:26:40.308Z,79.58
2019-04-07T04:29:10.392Z,79.13
2019-04-07T04:31:40.478Z,79.70
2019-04-07T04:34:10.477Z,79.46
2019-04-07T04:36:40.539Z,79.40
2019-04-07T04:39:10.459Z,79.19
2019-04-07T04:41:40.539Z,78.72
2019-04-07T04:44:10.333Z,79.42
2019-04-07T04:46:41.134Z,79.82
2019-04-07T04:49:11.849Z,79.68
2019-04-07T04:51:42.564Z,80.36
2019-04-07T04:54:12.613Z,79.94
2019-04-07T04:56:43.399Z,79.23
2019-04-07T04:59:13.224Z,79.66
2019-04-07T05:01:43.305Z,79.81
2019-04-07T05:04:13.029Z,78.95
2019-04-07T05:06:43.492Z,78.24
2019-04-07T05:09:13.590Z,79.14
2019-04-07T05:11:43.388Z,79.01
2019-04-07T05:14:13.137Z,79.20
2019-04-07T05:16:43.482Z,78.83
2019-04-07T05:19:13.283Z,78.95
2019-04-07T05:21:43.609Z,79.26
2019-04-07T05:24:13.860Z,79.43
2019-04-07T05:26:43.618Z,79.17
2019-04-07T05:29:13.757Z,79.37
2019-04-07T05:31:43.864Z,79.30
2019-04-07T05:34:16.767Z,79.02
2019-04-07T05:36:45.676Z,78.63
2019-04-07T05:39:15.418Z,78.35
2019-04-07T05:41:45.154Z,77.71
2019-04-07T05:44:15.100Z,77.72
2019-04-07T05:46:45.282Z,77.80
2019-04-07T05:49:16.904Z,77.56
2019-04-07T05:51:47.193Z,76.18
2019-04-07T05:54:19.001Z,75.22
2019-04-07T05:56:49.189Z,74.90
2019-04-07T05:59:19.788Z,74.32
2019-04-07T06:01:51.666Z,74.08
2019-04-07T06:04:21.706Z,73.27
2019-04-07T06:06:54.898Z,73.02
2019-04-07T06:09:23.127Z,73.09
2019-04-07T06:11:53.233Z,73.76
2019-04-07T06:14:24.282Z,74.20
2019-04-07T06:16:55.454Z,74.24
2019-04-07T06:19:26.045Z,74.49
2019-04-07T06:21:56.005Z,74.83
2019-04-07T06:24:28.801Z,74.83
2019-04-07T06:26:57.527Z,74.83
2019-04-07T06:29:28.025Z,74.69
2019-04-07T06:32:02.114Z,74.60
2019-04-07T06:34:29.497Z,74.11
2019-04-07T06:36:59.591Z,74.19
2019-04-07T06:39:31.839Z,73.86
2019-04-07T06:42:01.531Z,73.50
2019-04-07T06:44:32.318Z,73.54
2019-04-07T06:47:06.588Z,72.81
2019-04-07T06:49:38.144Z,72.95
2019-04-07T06:52:18.400Z,72.90
2019-04-07T06:55:05.625Z,71.77
2019-04-07T06:57:37.722Z,70.46
2019-04-07T07:00:20.585Z,70.05
2019-04-07T07:03:08.337Z,70.39
2019-04-07T07:05:56.173Z,70.22
2019-04-07T07:08:42.474Z,70.11
2019-04-07T07:11:09.490Z,70.25
2019-04-07T07:13:50.898Z,69.42
2019-04-07T07:16:26.182Z,69.43
2019-04-07T07:19:04.224Z,69.21
2019-04-07T07:21:38.724Z,68.74
2019-04-07T07:24:07.373Z,68.83
2019-04-07T07:26:38.653Z,68.05
2019-04-07T07:29:09.300Z,68.30
2019-04-07T07:31:39.215Z,66.83
2019-04-07T07:34:10.141Z,66.86
2019-04-07T07:36:40.799Z,67.51
2019-04-07T07:39:12.577Z,66.65
2019-04-07T07:41:42.317Z,67.10
2019-04-07T07:44:12.263Z,66.11
2019-04-07T07:46:42.173Z,65.83
2019-04-07T07:49:12.437Z,65.48
2019-04-07T07:51:45.098Z,66.13
2019-04-07T07:54:14.808Z,65.43
2019-04-07T07:56:50.146Z,65.27
2019-04-07T07:59:20.002Z,65.09
2019-04-07T08:01:51.338Z,64.89
2019-04-07T08:04:24.931Z,64.81
2019-04-07T08:06:53.409Z,64.22
2019-04-07T08:09:26.101Z,64.24
2019-04-07T08:11:56.386Z,63.50
2019-04-07T08:14:27.238Z,63.20
2019-04-07T08:17:00.166Z,63.33
2019-04-07T08:19:30.543Z,62.83
2019-04-07T08:22:00.710Z,62.41
2019-04-07T08:24:30.655Z,62.27
2019-04-07T08:27:00.541Z,61.59
2019-04-07T08:29:30.947Z,61.80
2019-04-07T08:32:01.114Z,60.94
2019-04-07T08:34:32.922Z,59.78
2019-04-07T08:37:03.734Z,59.64
2019-04-07T08:39:35.456Z,59.34
2019-04-07T08:42:09.830Z,58.62
2019-04-07T08:44:36.977Z,58.32
2019-04-07T08:47:11.423Z,58.07
2019-04-07T08:49:38.414Z,57.00
2019-04-07T08:52:10.219Z,56.43
2019-04-07T08:54:39.876Z,56.53
2019-04-07T08:57:09.683Z,56.45
2019-04-07T08:59:42.399Z,55.45
2019-04-07T09:02:11.384Z,54.40
2019-04-07T09:04:41.381Z,54.24
2019-04-07T09:07:11.749Z,54.43
2019-04-07T09:09:46.610Z,54.25
2019-04-07T09:12:14.025Z,53.80
2019-04-07T09:14:44.089Z,53.51
2019-04-07T09:17:29.302Z,52.17
2019-04-07T09:19:47.781Z,52.28
2019-04-07T09:22:23.461Z,52.51
2019-04-07T09:25:11.945Z,52.46
2019-04-07T09:27:46.058Z,50.79
2019-04-07T09:30:36.805Z,50.42
2019-04-07T09:33:18.066Z,50.08
2019-04-07T09:35:58.885Z,49.63
2019-04-07T09:38:32.046Z,49.31
2019-04-07T09:41:13.353Z,48.29
2019-04-07T09:43:45.256Z,47.63
2019-04-07T09:46:20.292Z,46.30
2019-04-07T09:48:52.494Z,45.62
2019-04-07T09:51:25.501Z,45.75
2019-04-07T09:54:12.226Z,45.33
2019-04-07T09:57:03.390Z,45.97
2019-04-07T09:59:52.140Z,45.56
2019-04-07T10:02:38.364Z,45.27
2019-04-07T10:05:26.608Z,45.20
2019-04-07T10:08:11.410Z,45.58
2019-04-07T10:10:49.986Z,45.25
2019-04-07T10:13:21.607Z,44.69
2019-04-07T10:15:56.374Z,44.75
2019-04-07T10:18:32.835Z,44.96
2019-04-07T10:21:19.651Z,45.00
2019-04-07T10:23:51.120Z,45.29
2019-04-07T10:26:36.228Z,45.17
2019-04-07T10:29:13.991Z,45.56
2019-04-07T10:31:45.312Z,45.70
2019-04-07T10:34:33.289Z,45.41
2019-04-07T10:37:05.394Z,45.85
2019-04-07T10:39:37.102Z,45.20
2019-04-07T10:42:24.852Z,45.36
2019-04-07T10:45:02.007Z,45.24
2019-04-07T10:47:42.163Z,45.47
2019-04-07T10:50:26.841Z,45.24
2019-04-07T10:52:58.465Z,45.72
2019-04-07T10:55:35.185Z,45.20
2019-04-07T10:58:08.275Z,44.61
2019-04-07T11:00:56.546Z,44.89
2019-04-07T11:03:44.380Z,44.79
2019-04-07T11:06:16.084Z,44.99
2019-04-07T11:08:46.605Z,44.25
2019-04-07T11:11:19.061Z,44.08
2019-04-07T11:14:02.696Z,44.92
2019-04-07T11:16:34.098Z,44.23
2019-04-07T11:19:05.616Z,44.74
2019-04-07T11:21:42.783Z,44.46
2019-04-07T11:24:19.666Z,44.52
2019-04-07T11:26:55.027Z,43.96
2019-04-07T11:29:29.585Z,44.11
2019-04-07T11:32:04.084Z,43.43
2019-04-07T11:34:52.939Z,44.18
2019-04-07T11:37:33.392Z,43.33
2019-04-07T11:40:04.874Z,42.64
2019-04-07T11:42:39.410Z,42.10
2019-04-07T11:45:17.596Z,42.51
2019-04-07T11:47:59.454Z,43.18
2019-04-07T11:50:48.985Z,42.51
2019-04-07T11:53:21.194Z,42.31
2019-04-07T11:55:53.232Z,42.35
2019-04-07T11:58:33.141Z,42.06
2019-04-07T12:01:12.261Z,42.19
2019-04-07T12:03:38.693Z,42.12
2019-04-07T12:06:14.357Z,42.19
2019-04-07T12:08:46.772Z,42.76
2019-04-07T12:11:31.055Z,42.33
2019-04-07T12:14:08.977Z,42.08
2019-04-07T12:16:53.458Z,41.41
2019-04-07T12:19:39.885Z,41.70
2019-04-07T12:22:20.003Z,41.59
2019-04-07T12:24:51.355Z,41.53
2019-04-07T12:27:42.999Z,41.22
2019-04-07T12:30:14.317Z,41.54
2019-04-07T12:32:43.933Z,41.02
2019-04-07T12:35:33.027Z,41.54
2019-04-07T12:38:16.575Z,41.31
2019-04-07T12:40:52.924Z,41.99
2019-04-07T12:43:24.968Z,42.03
2019-04-07T12:45:59.430Z,42.00
2019-04-07T12:48:31.967Z,42.16
2019-04-07T12:51:04.507Z,41.97
2019-04-07T12:53:43.420Z,41.27
2019-04-07T12:56:33.895Z,41.64
2019-04-07T12:59:02.008Z,40.28
2019-04-07T13:01:33.876Z,39.86
2019-04-07T13:04:06.040Z,39.98
2019-04-07T13:06:54.512Z,40.22
2019-04-07T13:09:33.062Z,40.09
2019-04-07T13:12:05.650Z,39.40
2019-04-07T13:14:53.670Z,39.46
2019-04-07T13:17:28.073Z,38.92
2019-04-07T13:20:02.306Z,39.90
2019-04-07T13:22:46.000Z,39.51
2019-04-07T13:25:33.734Z,40.00
2019-04-07T13:28:05.303Z,40.29
2019-04-07T13:30:43.332Z,39.81
2019-04-07T13:33:45.813Z,40.29
2019-04-07T14:40:12.759Z,40.75
2019-04-07T14:42:44.573Z,40.36
2019-04-07T14:45:32.101Z,40.43
2019-04-07T14:48:12.923Z,40.80
2019-04-07T14:50:44.899Z,40.50
2019-04-07T14:53:32.983Z,40.40
2019-04-07T14:56:15.365Z,39.75
2019-04-07T14:58:53.861Z,39.84
2019-04-07T15:01:25.727Z,39.82
2019-04-07T15:03:55.701Z,39.83
2019-04-07T15:06:29.207Z,39.30
2019-04-07T15:09:17.618Z,38.69
2019-04-07T15:11:49.044Z,38.60
2019-04-07T15:14:19.215Z,38.72
2019-04-07T15:16:49.210Z,39.11
2019-04-07T15:19:19.865Z,39.58
2019-04-07T15:21:53.021Z,40.15
2019-04-07T15:24:22.648Z,40.26
2019-04-07T15:26:53.007Z,40.10
2019-04-07T15:29:23.213Z,40.22
2019-04-07T15:31:53.209Z,40.23
2019-04-07T15:34:23.079Z,40.14
2019-04-07T15:36:52.904Z,40.59
2019-04-07T15:39:22.699Z,40.21
2019-04-07T15:41:52.609Z,40.20
2019-04-07T15:44:22.873Z,40.22
2019-04-07T15:46:53.376Z,40.40
2019-04-07T15:49:26.023Z,40.48
2019-04-07T15:51:55.150Z,40.50
2019-04-07T15:54:25.397Z,40.81
2019-04-07T15:56:57.893Z,40.79
2019-04-07T15:59:29.426Z,40.69
2019-04-07T16:01:58.248Z,40.78
2019-04-07T16:04:29.483Z,40.26
2019-04-07T16:07:00.217Z,40.12
2019-04-07T16:09:38.681Z,40.31
2019-04-07T16:12:01.731Z,40.69
2019-04-07T16:14:32.071Z,40.83
2019-04-07T16:17:04.144Z,41.03
2019-04-07T16:19:38.183Z,41.41
2019-04-07T16:22:06.036Z,40.96
2019-04-07T16:24:35.835Z,41.19
2019-04-07T16:27:07.041Z,40.97
2019-04-07T16:29:37.386Z,41.18
2019-04-07T16:32:08.141Z,40.99
2019-04-07T16:34:41.031Z,40.90
2019-04-07T16:37:09.532Z,41.09
2019-04-07T16:39:39.367Z,41.38
2019-04-07T16:42:09.344Z,41.33
2019-04-07T16:44:42.824Z,41.48
2019-04-07T16:47:19.581Z,41.46
2019-04-07T16:49:47.394Z,41.36
2019-04-07T16:52:13.872Z,41.31
2019-04-07T16:54:44.686Z,41.27
2019-04-07T16:57:15.400Z,40.99
2019-04-07T16:59:45.589Z,41.38
2019-04-07T17:02:16.989Z,41.21
2019-04-07T17:04:46.995Z,41.32
2019-04-07T17:07:17.999Z,41.38
2019-04-07T17:09:48.859Z,41.35
2019-04-07T17:12:18.587Z,41.91
2019-04-07T17:14:49.056Z,41.83
2019-04-07T17:17:21.537Z,41.77
2019-04-07T17:19:51.239Z,41.42
2019-04-07T17:22:21.169Z,41.58
2019-04-07T17:24:51.895Z,41.67
2019-04-07T17:27:21.697Z,41.47
2019-04-07T17:29:54.091Z,41.52
2019-04-07T17:32:23.219Z,41.46
2019-04-07T17:34:53.062Z,41.37
2019-04-07T17:37:25.953Z,41.65
2019-04-07T17:39:58.517Z,41.89
2019-04-07T17:42:28.362Z,41.86
2019-04-07T17:45:03.443Z,41.81
2019-04-07T17:47:51.777Z,41.75
2019-04-07T17:50:23.513Z,42.25
2019-04-07T17:52:58.519Z,42.05
2019-04-07T17:55:30.014Z,42.39
2019-04-07T17:58:07.884Z,42.73
2019-04-07T18:00:49.219Z,42.44
2019-04-07T18:03:39.080Z,42.57
2019-04-07T18:06:24.975Z,43.07
2019-04-07T18:09:12.397Z,42.65
2019-04-07T18:11:52.872Z,42.90
2019-04-07T18:14:22.364Z,43.02
2019-04-07T18:16:58.072Z,42.92
2019-04-07T18:19:36.210Z,43.16
2019-04-07T18:22:13.698Z,42.83
2019-04-07T18:24:51.045Z,43.85
2019-04-07T18:27:25.351Z,43.08
2019-04-07T18:30:05.533Z,43.27
2019-04-07T18:32:43.059Z,43.33
2019-04-07T18:35:32.642Z,43.82
2019-04-07T18:38:20.583Z,43.44
2019-04-07T18:41:10.740Z,44.25
2019-04-07T18:43:49.103Z,44.17
2019-04-07T18:46:28.866Z,43.94
2019-04-07T18:49:04.822Z,44.22
2019-04-07T18:51:44.349Z,44.54
2019-04-07T18:54:17.161Z,44.15
2019-04-07T18:57:05.478Z,44.39
2019-04-07T18:59:38.993Z,44.60
2019-04-07T19:02:14.876Z,44.46
2019-04-07T19:04:53.483Z,44.66
2019-04-07T19:07:45.865Z,44.60
2019-04-07T19:10:29.050Z,44.92
2019-04-07T19:13:18.550Z,44.85
2019-04-07T19:15:53.287Z,45.25
2019-04-07T19:18:25.970Z,45.49
2019-04-07T19:21:01.050Z,45.58
2019-04-07T19:23:30.553Z,45.62
2019-04-07T19:26:04.580Z,46.00
2019-04-07T19:28:50.723Z,45.78
2019-04-07T19:31:20.206Z,46.11
2019-04-07T19:33:57.884Z,46.11
2019-04-07T19:36:29.366Z,46.50
2019-04-07T19:39:03.513Z,47.00
2019-04-07T19:41:47.067Z,46.77
2019-04-07T19:44:35.748Z,46.82
2019-04-07T19:47:00.050Z,47.24
2019-04-07T19:49:30.893Z,47.39
2019-04-07T19:52:09.465Z,47.70
2019-04-07T19:54:51.563Z,47.94
2019-04-07T19:57:23.865Z,48.19
2019-04-07T20:00:14.253Z,48.48
2019-04-07T20:03:04.246Z,48.48
2019-04-07T20:05:41.694Z,48.72
2019-04-07T20:08:24.910Z,49.11
2019-04-07T20:10:57.586Z,49.34
2019-04-07T20:13:38.378Z,49.56
2019-04-07T20:16:08.147Z,49.88
2019-04-07T20:18:58.585Z,50.09
2019-04-07T20:21:38.268Z,50.29
2019-04-07T20:24:15.237Z,50.32
2019-04-07T20:26:46.797Z,50.85
2019-04-07T20:29:19.232Z,50.79
2019-04-07T20:32:03.360Z,50.82
2019-04-07T20:34:40.409Z,50.88
2019-04-07T20:37:09.374Z,50.99
2019-04-07T20:39:45.138Z,51.20
2019-04-07T20:42:25.747Z,51.42
2019-04-07T20:45:03.831Z,51.60
2019-04-07T20:47:31.768Z,51.70
2019-04-07T20:50:19.600Z,51.85
2019-04-07T20:52:49.073Z,52.13
2019-04-07T20:55:37.316Z,52.34
2019-04-07T20:58:23.800Z,52.30
2019-04-07T21:01:04.186Z,52.69
2019-04-07T21:03:45.046Z,52.93
2019-04-07T21:06:15.310Z,52.83
2019-04-07T21:09:01.420Z,52.90
2019-04-07T21:11:49.291Z,53.23
2019-04-07T21:14:20.858Z,53.33
2019-04-07T21:16:50.986Z,53.56
2019-04-07T21:19:22.863Z,53.95
2019-04-07T21:21:58.603Z,54.03
2019-04-07T21:24:49.783Z,53.67
2019-04-07T21:27:20.865Z,53.82
2019-04-07T21:29:58.016Z,54.07
2019-04-07T21:32:48.618Z,54.34
2019-04-07T21:35:35.355Z,54.31
2019-04-07T21:38:18.293Z,54.43
2019-04-07T21:40:51.363Z,54.73
2019-04-07T21:43:37.898Z,54.49
2019-04-07T21:46:22.435Z,54.80
2019-04-07T21:48:51.614Z,54.88
2019-04-07T21:51:29.157Z,54.94
2019-04-07T21:54:02.739Z,54.80
2019-04-07T21:56:37.163Z,55.32
2019-04-07T21:59:09.676Z,55.42
2019-04-07T22:01:41.230Z,55.16
2019-04-07T22:04:29.838Z,55.75
2019-04-07T22:07:01.664Z,55.90
2019-04-07T22:09:33.088Z,55.54
2019-04-07T22:12:03.117Z,55.57
2019-04-07T22:14:34.957Z,55.85
2019-04-07T22:17:05.298Z,55.52
2019-04-07T22:19:35.887Z,55.97
2019-04-07T22:22:06.660Z,56.15
2019-04-07T22:24:38.320Z,56.30
2019-04-07T22:27:09.118Z,56.21
2019-04-07T22:29:39.033Z,56.55
2019-04-07T22:32:08.974Z,56.76
2019-04-07T22:34:38.917Z,56.55
2019-04-07T22:37:08.600Z,56.98
2019-04-07T22:39:38.418Z,57.07
2019-04-07T22:42:08.570Z,57.28
2019-04-07T22:44:38.442Z,57.03
2019-04-07T22:47:09.173Z,57.40
2019-04-07T22:49:39.641Z,57.25
2019-04-07T22:52:09.660Z,57.40
2019-04-07T22:54:40.665Z,57.21
2019-04-07T22:57:13.108Z,57.41
2019-04-07T22:59:41.873Z,57.38
2019-04-07T23:02:11.701Z,57.54
2019-04-07T23:04:41.448Z,57.48
2019-04-07T23:07:11.735Z,57.82
2019-04-07T23:09:41.627Z,58.08
2019-04-07T23:12:11.331Z,58.27
2019-04-07T23:14:42.114Z,58.44
2019-04-07T23:17:12.046Z,58.18
2019-04-07T23:19:41.997Z,58.68
2019-04-07T23:22:11.877Z,58.65
2019-04-07T23:24:41.712Z,59.02
2019-04-07T23:27:12.398Z,59.39
2019-04-07T23:29:42.310Z,59.37
2019-04-07T23:32:12.138Z,59.61
2019-04-07T23:34:41.811Z,59.83
2019-04-07T23:37:12.351Z,60.08
2019-04-07T23:39:42.077Z,60.24
2019-04-07T23:42:12.593Z,60.57
2019-04-07T23:44:42.646Z,60.85
2019-04-07T23:47:13.511Z,61.08
2019-04-07T23:49:43.252Z,61.01
2019-04-07T23:52:12.965Z,61.46
2019-04-07T23:54:42.637Z,61.57
2019-04-07T23:57:12.363Z,61.69
2019-04-07T23:59:42.240Z,61.80
